createdAt,value
2019-04-23T00:00:39.436Z,1001.26
2019-04-23T00:02:29.129Z,1001.22
2019-04-23T00:03:37.380Z,1001.21
2019-04-23T00:05:35.311Z,1001.20
2019-04-23T00:06:23.566Z,1001.16
2019-04-23T00:08:41.598Z,1001.12
2019-04-23T00:09:26.983Z,1001.07
2019-04-23T00:11:15.690Z,1001.10
2019-04-23T00:12:23.686Z,1001.07
2019-04-23T00:14:12.366Z,1001.06
2019-04-23T00:15:09.253Z,1001.03
2019-04-23T00:16:59.378Z,1001.02
2019-04-23T00:17:55.868Z,1001.00
2019-04-23T00:20:00.015Z,1000.96
2019-04-23T00:20:54.941Z,1000.94
2019-04-23T00:22:53.291Z,1000.92
2019-04-23T00:23:59.649Z,1000.90
2019-04-23T00:25:54.390Z,1000.88
2019-04-23T00:26:44.087Z,1000.87
2019-04-23T00:28:37.402Z,1000.87
2019-04-23T00:29:38.578Z,1000.82
2019-04-23T00:31:29.605Z,1000.83
2019-04-23T00:34:17.801Z,1000.77
2019-04-23T00:35:15.987Z,1000.81
2019-04-23T00:37:20.266Z,1000.79
2019-04-23T00:38:21.450Z,1000.79
2019-04-23T00:40:20.359Z,1000.74
2019-04-23T00:41:02.906Z,1000.76
2019-04-23T00:42:58.373Z,1000.72
2019-04-23T00:44:02.312Z,1000.75
2019-04-23T00:46:46.557Z,1000.75
2019-04-23T00:48:54.424Z,1000.68
2019-04-23T00:49:44.913Z,1000.72
2019-04-23T00:51:36.911Z,1000.67
2019-04-23T00:52:37.629Z,1000.63
2019-04-23T00:54:28.204Z,1000.63
2019-04-23T00:55:35.637Z,1000.61
2019-04-23T00:57:24.367Z,1000.61
2019-04-23T01:00:19.282Z,1000.55
2019-04-23T01:01:11.267Z,1000.63
2019-04-23T01:03:05.830Z,1000.60
2019-04-23T01:04:08.502Z,1000.57
2019-04-23T01:06:03.960Z,1000.54
2019-04-23T01:07:02.557Z,1000.55
2019-04-23T01:08:50.852Z,1000.53
2019-04-23T01:09:54.479Z,1000.54
2019-04-23T01:11:43.480Z,1000.56
2019-04-23T01:12:51.644Z,1000.49
2019-04-23T01:14:41.103Z,1000.53
2019-04-23T01:15:42.455Z,1000.54
2019-04-23T01:17:42.670Z,1000.49
2019-04-23T01:18:40.413Z,1000.52
2019-04-23T01:20:24.191Z,1000.52
2019-04-23T01:21:03.411Z,1000.51
2019-04-23T01:22:55.283Z,1000.48
2019-04-23T01:24:02.048Z,1000.45
2019-04-23T01:26:00.356Z,1000.47
2019-04-23T01:27:23.750Z,1000.47
2019-04-23T01:29:06.968Z,1000.42
2019-04-23T01:30:09.738Z,1000.43
2019-04-23T01:31:58.500Z,1000.44
2019-04-23T01:32:54.651Z,1000.47
2019-04-23T01:35:00.618Z,1000.44
2019-04-23T01:36:06.403Z,1000.43
2019-04-23T01:37:46.437Z,1000.42
2019-04-23T01:38:45.871Z,1000.44
2019-04-23T01:40:36.567Z,1000.40
2019-04-23T01:41:41.194Z,1000.40
2019-04-23T01:43:30.256Z,1000.38
2019-04-23T01:44:38.680Z,1000.41
2019-04-23T01:46:21.381Z,1000.35
2019-04-23T01:47:25.027Z,1000.36
2019-04-23T01:49:20.689Z,1000.37
2019-04-23T01:50:20.122Z,1000.36
2019-04-23T01:52:20.845Z,1000.33
2019-04-23T01:53:31.800Z,1000.35
2019-04-23T01:55:09.386Z,1000.31
2019-04-23T01:56:20.336Z,1000.32
2019-04-23T01:58:07.061Z,1000.30
2019-04-23T01:58:59.196Z,1000.30
2019-04-23T02:00:47.545Z,1000.28
2019-04-23T02:01:51.561Z,1000.24
2019-04-23T02:03:42.696Z,1000.19
2019-04-23T02:04:44.869Z,1000.20
2019-04-23T02:06:31.472Z,1000.22
2019-04-23T02:07:44.490Z,1000.21
2019-04-23T02:09:40.187Z,1000.17
2019-04-23T02:12:28.919Z,1000.11
2019-04-23T02:13:22.368Z,1000.15
2019-04-23T02:15:18.571Z,1000.14
2019-04-23T02:16:17.258Z,1000.11
2019-04-23T02:19:09.967Z,1000.02
2019-04-23T02:20:59.026Z,1000.00
2019-04-23T02:21:59.914Z,999.98
2019-04-23T02:23:49.115Z,999.92
2019-04-23T02:24:54.524Z,999.97
2019-04-23T02:26:46.819Z,999.93
2019-04-23T02:27:57.938Z,999.89
2019-04-23T02:30:58.212Z,999.86
2019-04-23T02:32:45.770Z,999.84
2019-04-23T02:35:42.663Z,999.84
2019-04-23T02:36:32.514Z,999.82
2019-04-23T02:38:31.576Z,999.81
2019-04-23T02:41:16.447Z,999.84
2019-04-23T02:44:19.078Z,999.81
2019-04-23T02:45:09.064Z,999.83
2019-04-23T02:47:10.310Z,999.79
2019-04-23T02:48:10.493Z,999.76
2019-04-23T02:52:49.405Z,999.75
2019-04-23T02:55:43.684Z,999.68
2019-04-23T02:59:47.650Z,999.66
2019-04-23T03:01:27.904Z,999.67
2019-04-23T03:02:37.079Z,999.63
2019-04-23T03:04:27.118Z,999.66
2019-04-23T03:05:20.200Z,999.65
2019-04-23T03:07:33.376Z,999.62
2019-04-23T03:08:06.322Z,999.63
2019-04-23T03:10:14.464Z,999.59
2019-04-23T03:11:20.829Z,999.60
2019-04-23T03:14:00.625Z,999.57
2019-04-23T03:18:45.935Z,999.55
2019-04-23T03:19:52.338Z,999.53
2019-04-23T03:21:42.573Z,999.52
2019-04-23T03:22:44.619Z,999.48
2019-04-23T03:25:31.171Z,999.43
2019-04-23T03:28:26.988Z,999.41
2019-04-23T03:32:45.479Z,999.46
2019-04-23T03:34:38.512Z,999.41
2019-04-23T03:37:23.512Z,999.40
2019-04-23T03:38:54.306Z,999.39
2019-04-23T03:40:03.943Z,999.38
2019-04-23T03:41:48.530Z,999.39
2019-04-23T03:43:01.264Z,999.40
2019-04-23T03:45:54.072Z,999.41
2019-04-23T03:47:34.813Z,999.40
2019-04-23T03:50:29.879Z,999.35
2019-04-23T03:51:34.288Z,999.33
2019-04-23T03:53:29.908Z,999.36
2019-04-23T03:59:26.614Z,999.34
2019-04-23T04:02:10.963Z,999.37
2019-04-23T04:04:53.526Z,999.32
2019-04-23T04:06:02.950Z,999.33
2019-04-23T04:08:02.558Z,999.38
2019-04-23T04:08:50.018Z,999.34
2019-04-23T04:10:44.743Z,999.35
2019-04-23T04:11:48.683Z,999.36
2019-04-23T04:14:38.887Z,999.39
2019-04-23T04:17:19.744Z,999.35
2019-04-23T04:19:27.957Z,999.37
2019-04-23T04:20:24.748Z,999.35
2019-04-23T04:22:21.557Z,999.34
2019-04-23T04:23:17.555Z,999.34
2019-04-23T04:34:03.149Z,999.41
2019-04-23T04:35:11.155Z,999.38
2019-04-23T04:36:45.056Z,999.37
2019-04-23T04:37:57.932Z,999.37
2019-04-23T04:39:26.931Z,999.36
2019-04-23T04:45:20.377Z,999.38
2019-04-23T04:48:01.306Z,999.34
2019-04-23T04:49:07.920Z,999.34
2019-04-23T04:54:09.743Z,999.26
2019-04-23T04:54:47.065Z,999.25
2019-04-23T04:56:42.589Z,999.23
2019-04-23T05:02:39.134Z,999.19
2019-04-23T05:06:01.352Z,999.15
2019-04-23T05:06:24.385Z,999.15
2019-04-23T05:11:24.152Z,999.20
2019-04-23T05:14:00.039Z,999.18
2019-04-23T05:15:23.494Z,999.21
2019-04-23T05:16:56.471Z,999.19
2019-04-23T05:19:53.412Z,999.17
2019-04-23T05:22:49.337Z,999.14
2019-04-23T05:23:33.742Z,999.15
2019-04-23T05:25:25.449Z,999.18
2019-04-23T05:26:29.365Z,999.19
2019-04-23T05:28:25.049Z,999.21
2019-04-23T05:31:23.174Z,999.17
2019-04-23T05:32:17.445Z,999.17
2019-04-23T05:34:12.606Z,999.18
2019-04-23T05:35:12.931Z,999.21
2019-04-23T05:37:00.065Z,999.20
2019-04-23T05:40:15.987Z,999.19
2019-04-23T05:40:53.746Z,999.17
2019-04-23T05:42:49.731Z,999.15
2019-04-23T05:43:46.893Z,999.15
2019-04-23T05:46:42.915Z,999.09
2019-04-23T05:48:35.123Z,999.06
2019-04-23T05:49:33.072Z,999.10
2019-04-23T05:51:33.496Z,999.08
2019-04-23T05:52:27.942Z,999.10
2019-04-23T05:54:18.961Z,999.05
2019-04-23T05:55:13.686Z,999.03
2019-04-23T05:57:09.874Z,999.07
2019-04-23T05:58:19.874Z,998.99
2019-04-23T06:00:04.040Z,999.06
2019-04-23T06:01:25.162Z,998.99
2019-04-23T06:03:08.102Z,998.99
2019-04-23T06:04:03.742Z,998.95
2019-04-23T06:05:58.251Z,999.01
2019-04-23T06:08:47.532Z,998.93
2019-04-23T06:09:39.322Z,998.97
2019-04-23T06:11:45.055Z,998.87
2019-04-23T06:12:31.319Z,998.86
2019-04-23T06:14:30.735Z,998.96
2019-04-23T06:15:28.696Z,998.88
2019-04-23T06:17:29.801Z,998.92
2019-04-23T06:18:25.316Z,998.92
2019-04-23T06:21:21.504Z,998.95
2019-04-23T06:23:19.068Z,998.97
2019-04-23T06:27:01.247Z,998.92
2019-04-23T06:28:50.952Z,998.91
2019-04-23T06:29:49.999Z,998.89
2019-04-23T06:31:58.785Z,998.90
2019-04-23T06:32:42.781Z,998.87
2019-04-23T06:34:43.629Z,998.84
2019-04-23T06:35:39.514Z,998.83
2019-04-23T06:37:49.822Z,998.88
2019-04-23T06:38:41.049Z,998.81
2019-04-23T06:40:22.015Z,998.84
2019-04-23T06:41:21.925Z,998.82
2019-04-23T06:43:22.592Z,998.87
2019-04-23T06:44:19.220Z,998.88
2019-04-23T06:46:11.887Z,998.74
2019-04-23T06:47:08.279Z,998.83
2019-04-23T06:49:02.030Z,998.73
2019-04-23T06:50:00.093Z,998.76
2019-04-23T06:52:08.372Z,998.72
2019-04-23T06:52:50.000Z,998.66
2019-04-23T06:54:58.031Z,998.68
2019-04-23T06:55:50.946Z,998.66
2019-04-23T06:57:38.519Z,998.63
2019-04-23T06:59:07.628Z,998.55
2019-04-23T07:00:34.197Z,998.75
2019-04-23T07:01:36.552Z,998.63
2019-04-23T07:03:31.210Z,998.55
2019-04-23T07:06:23.697Z,998.61
2019-04-23T07:10:11.144Z,998.49
2019-04-23T07:12:05.375Z,998.45
2019-04-23T07:13:06.362Z,998.45
2019-04-23T07:15:53.792Z,998.42
2019-04-23T07:17:47.782Z,998.45
2019-04-23T07:20:40.309Z,998.46
2019-04-23T07:21:42.007Z,998.50
2019-04-23T07:23:44.864Z,998.48
2019-04-23T07:24:36.598Z,998.44
2019-04-23T07:26:34.380Z,998.39
2019-04-23T07:27:30.448Z,998.42
2019-04-23T07:29:25.795Z,998.36
2019-04-23T07:30:23.628Z,998.33
2019-04-23T07:32:11.864Z,998.35
2019-04-23T07:33:20.857Z,998.29
2019-04-23T07:35:13.791Z,998.23
2019-04-23T07:36:08.637Z,998.26
2019-04-23T07:38:14.660Z,998.18
2019-04-23T07:40:55.792Z,998.09
2019-04-23T07:42:03.642Z,997.98
2019-04-23T07:44:02.707Z,998.11
2019-04-23T07:44:52.011Z,998.06
2019-04-23T07:46:53.082Z,998.11
2019-04-23T07:47:47.291Z,998.17
2019-04-23T07:49:43.287Z,998.03
2019-04-23T07:50:39.254Z,998.19
2019-04-23T07:52:34.028Z,997.97
2019-04-23T07:53:22.910Z,998.03
2019-04-23T07:55:27.015Z,998.02
2019-04-23T07:56:35.434Z,997.93
2019-04-23T07:59:19.419Z,997.87
2019-04-23T08:01:06.931Z,997.94
2019-04-23T08:02:14.149Z,997.90
2019-04-23T08:04:07.313Z,998.03
2019-04-23T08:06:54.228Z,997.84
2019-04-23T08:07:49.429Z,997.85
2019-04-23T08:09:47.733Z,997.79
2019-04-23T08:11:14.329Z,997.74
2019-04-23T08:12:43.793Z,997.84
2019-04-23T08:13:42.416Z,997.77
2019-04-23T08:16:38.364Z,997.71
2019-04-23T08:18:28.922Z,997.76
2019-04-23T08:19:34.982Z,997.72
2019-04-23T08:21:16.309Z,997.70
2019-04-23T08:24:08.767Z,997.67
2019-04-23T08:25:14.315Z,997.60
2019-04-23T08:27:04.169Z,997.68
2019-04-23T08:28:06.202Z,997.63
2019-04-23T08:29:47.764Z,997.60
2019-04-23T08:30:52.785Z,997.57
2019-04-23T08:32:47.328Z,997.59
2019-04-23T08:33:56.535Z,997.64
2019-04-23T08:35:45.420Z,997.54
2019-04-23T08:36:44.393Z,997.52
2019-04-23T08:38:36.253Z,997.43
2019-04-23T08:41:36.051Z,997.54
2019-04-23T08:48:27.491Z,997.35
2019-04-23T08:50:04.333Z,997.30
2019-04-23T08:51:21.060Z,997.33
2019-04-23T08:53:08.039Z,997.40
2019-04-23T08:53:56.901Z,997.37
2019-04-23T08:56:58.571Z,997.21
2019-04-23T08:58:46.224Z,997.18
2019-04-23T08:59:48.637Z,997.20
2019-04-23T09:01:47.762Z,997.29
2019-04-23T09:04:31.299Z,997.18
2019-04-23T09:05:46.756Z,997.11
2019-04-23T09:07:43.694Z,997.10
2019-04-23T09:10:23.273Z,997.13
2019-04-23T09:11:32.429Z,997.15
2019-04-23T09:13:35.291Z,997.15
2019-04-23T09:14:15.684Z,997.19
2019-04-23T09:16:15.785Z,997.14
2019-04-23T09:17:06.150Z,996.97
2019-04-23T09:18:53.030Z,997.11
2019-04-23T09:20:15.071Z,997.04
2019-04-23T09:21:56.006Z,996.93
2019-04-23T09:22:46.457Z,996.93
2019-04-23T09:24:43.264Z,996.89
2019-04-23T09:25:49.842Z,996.98
2019-04-23T09:27:38.180Z,996.89
2019-04-23T09:28:41.358Z,996.94
2019-04-23T09:30:26.648Z,996.89
2019-04-23T09:33:24.051Z,996.88
2019-04-23T09:34:17.201Z,996.82
2019-04-23T09:36:13.667Z,996.81
2019-04-23T09:37:24.552Z,996.73
2019-04-23T09:39:10.063Z,996.73
2019-04-23T09:40:10.444Z,996.62
2019-04-23T09:42:07.112Z,996.77
2019-04-23T09:43:00.469Z,996.84
2019-04-23T09:44:58.463Z,996.59
2019-04-23T09:45:56.170Z,996.61
2019-04-23T09:47:50.731Z,997.06
2019-04-23T09:48:51.122Z,996.61
2019-04-23T09:51:35.851Z,996.65
2019-04-23T09:53:29.235Z,996.52
2019-04-23T09:54:32.496Z,996.54
2019-04-23T09:56:25.037Z,996.41
2019-04-23T09:57:15.972Z,996.44
2019-04-23T09:59:23.489Z,996.63
2019-04-23T10:00:25.453Z,996.60
2019-04-23T10:02:04.366Z,996.36
2019-04-23T10:03:01.745Z,996.35
2019-04-23T10:04:51.999Z,996.51
2019-04-23T10:05:46.059Z,996.30
2019-04-23T10:07:40.615Z,996.30
2019-04-23T10:08:35.071Z,996.40
2019-04-23T10:10:20.846Z,996.29
2019-04-23T10:11:22.242Z,996.40
2019-04-23T10:13:13.780Z,996.34
2019-04-23T10:14:14.713Z,996.24
2019-04-23T10:16:08.504Z,996.36
2019-04-23T10:17:08.338Z,996.25
2019-04-23T10:19:00.985Z,996.29
2019-04-23T10:20:00.588Z,996.22
2019-04-23T10:21:53.368Z,996.31
2019-04-23T10:22:52.651Z,996.23
2019-04-23T10:24:45.595Z,996.23
2019-04-23T10:25:45.798Z,996.25
2019-04-23T10:27:39.171Z,996.34
2019-04-23T10:28:40.107Z,996.23
2019-04-23T10:30:31.259Z,996.18
2019-04-23T10:31:31.584Z,996.21
2019-04-23T10:33:25.478Z,996.14
2019-04-23T10:34:25.335Z,996.20
2019-04-23T10:36:21.088Z,996.04
2019-04-23T10:37:30.011Z,996.10
2019-04-23T10:39:17.835Z,996.10
2019-04-23T10:40:17.000Z,996.02
2019-04-23T10:42:03.464Z,995.99
2019-04-23T10:43:03.929Z,995.99
2019-04-23T10:45:12.232Z,996.04
2019-04-23T10:46:15.367Z,995.97
2019-04-23T10:48:31.510Z,995.92
2019-04-23T10:49:32.135Z,995.93
2019-04-23T10:51:04.515Z,996.02
2019-04-23T10:52:12.948Z,996.15
2019-04-23T10:54:18.177Z,995.96
2019-04-23T10:54:59.753Z,995.92
2019-04-23T10:56:53.587Z,995.83
2019-04-23T10:57:56.337Z,995.82
2019-04-23T10:59:43.239Z,995.75
2019-04-23T11:01:04.508Z,995.76
2019-04-23T11:05:47.390Z,995.82
2019-04-23T11:06:41.088Z,995.71
2019-04-23T11:08:23.947Z,995.78
2019-04-23T11:09:43.634Z,995.84
2019-04-23T11:11:23.675Z,995.68
2019-04-23T11:12:32.486Z,995.60
2019-04-23T11:14:23.190Z,995.63
2019-04-23T11:17:03.633Z,995.58
2019-04-23T11:17:59.359Z,995.61
2019-04-23T11:20:07.767Z,995.49
2019-04-23T11:20:58.237Z,995.61
2019-04-23T11:24:04.961Z,995.47
2019-04-23T11:25:57.699Z,995.52
2019-04-23T11:28:38.357Z,995.49
2019-04-23T11:29:46.790Z,995.54
2019-04-23T11:31:35.262Z,995.48
2019-04-23T11:32:46.526Z,995.32
2019-04-23T11:34:50.488Z,995.42
2019-04-23T11:35:31.061Z,995.39
2019-04-23T11:37:23.076Z,995.59
2019-04-23T11:38:43.736Z,995.40
2019-04-23T11:40:15.756Z,995.64
2019-04-23T11:41:21.496Z,995.38
2019-04-23T11:43:09.285Z,995.40
2019-04-23T11:44:07.458Z,995.41
2019-04-23T11:49:04.715Z,995.37
2019-04-23T11:55:48.689Z,995.35
2019-04-23T11:57:52.146Z,995.55
2019-04-23T11:58:30.295Z,995.37
2019-04-23T12:00:26.812Z,995.26
2019-04-23T12:03:28.103Z,995.35
2019-04-23T12:04:23.673Z,995.50
2019-04-23T12:06:11.552Z,995.23
2019-04-23T12:07:09.607Z,995.24
2019-04-23T12:08:58.325Z,995.35
2019-04-23T12:10:22.291Z,995.31
2019-04-23T12:12:10.776Z,995.22
2019-04-23T12:12:44.610Z,995.30
2019-04-23T12:15:46.403Z,995.24
2019-04-23T12:17:45.956Z,995.33
2019-04-23T12:18:43.208Z,995.35
2019-04-23T12:21:41.589Z,995.23
2019-04-23T12:23:31.668Z,995.26
2019-04-23T12:24:50.401Z,995.39
2019-04-23T12:26:34.249Z,995.22
2019-04-23T12:27:25.977Z,995.31
2019-04-23T12:29:20.242Z,995.19
2019-04-23T12:32:18.226Z,995.23
2019-04-23T12:33:04.755Z,995.15
2019-04-23T12:35:51.083Z,995.18
2019-04-23T12:37:44.872Z,995.17
2019-04-23T12:38:49.523Z,995.18
2019-04-23T12:40:45.701Z,995.08
2019-04-23T12:41:43.368Z,995.12
2019-04-23T12:43:50.818Z,995.06
2019-04-23T12:44:44.178Z,995.24
2019-04-23T12:46:29.909Z,995.02
2019-04-23T12:47:49.229Z,995.05
2019-04-23T12:49:53.408Z,995.09
2019-04-23T12:50:41.802Z,994.94
2019-04-23T12:52:17.078Z,994.99
2019-04-23T12:55:15.235Z,995.08
2019-04-23T12:56:10.781Z,994.95
2019-04-23T12:58:03.830Z,994.98
2019-04-23T12:58:56.133Z,994.91
2019-04-23T13:00:54.523Z,994.99
2019-04-23T13:01:57.475Z,994.91
2019-04-23T13:03:40.916Z,994.90
2019-04-23T13:04:49.090Z,994.85
2019-04-23T13:06:36.837Z,994.86
2019-04-23T13:07:43.576Z,995.00
2019-04-23T13:09:42.185Z,994.83
2019-04-23T13:12:36.296Z,994.83
2019-04-23T13:15:17.412Z,994.77
2019-04-23T13:16:16.389Z,994.73
2019-04-23T13:18:11.284Z,994.66
2019-04-23T13:19:25.683Z,994.65
2019-04-23T13:21:19.016Z,994.66
2019-04-23T13:23:54.721Z,994.71
2019-04-23T13:24:57.851Z,994.72
2019-04-23T13:26:44.550Z,994.74
2019-04-23T13:27:57.199Z,994.67
2019-04-23T13:29:51.483Z,994.70
2019-04-23T13:30:46.660Z,994.62
2019-04-23T13:32:36.034Z,994.56
2019-04-23T13:33:51.423Z,994.62
2019-04-23T13:38:27.531Z,994.62
2019-04-23T13:39:24.672Z,994.65
2019-04-23T13:41:17.435Z,994.56
2019-04-23T13:42:22.527Z,994.54
2019-04-23T13:44:00.912Z,994.57
2019-04-23T13:45:44.611Z,994.62
2019-04-23T13:47:00.892Z,994.59
2019-04-23T13:48:06.796Z,994.51
2019-04-23T13:49:57.147Z,994.47
2019-04-23T13:53:08.201Z,994.42
2019-04-23T13:53:49.611Z,994.35
2019-04-23T13:55:40.937Z,994.45
2019-04-23T13:56:53.842Z,994.42
2019-04-23T13:58:26.827Z,994.40
2019-04-23T13:59:41.684Z,994.38
2019-04-23T14:02:31.116Z,994.36
2019-04-23T14:04:24.738Z,994.44
2019-04-23T14:05:23.959Z,994.37
2019-04-23T14:07:17.643Z,994.43
2019-04-23T14:08:23.302Z,994.25
2019-04-23T14:10:13.665Z,994.41
2019-04-23T14:11:02.210Z,994.40
2019-04-23T14:13:55.162Z,994.41
2019-04-23T14:15:53.992Z,994.21
2019-04-23T14:16:50.044Z,994.26
2019-04-23T14:19:41.940Z,994.36
2019-04-23T14:21:34.529Z,994.25
2019-04-23T14:23:00.037Z,994.27
2019-04-23T14:24:26.851Z,994.24
2019-04-23T14:25:28.063Z,994.25
2019-04-23T14:27:34.613Z,994.21
2019-04-23T14:30:20.158Z,994.20
2019-04-23T14:31:13.024Z,994.18
2019-04-23T14:33:20.600Z,994.30
2019-04-23T14:34:19.349Z,994.20
2019-04-23T14:36:00.880Z,994.20
2019-04-23T14:39:13.612Z,994.28
2019-04-23T14:39:58.942Z,994.24
2019-04-23T14:41:52.506Z,994.13
2019-04-23T14:42:55.960Z,994.20
2019-04-23T14:44:41.459Z,994.18
2019-04-23T14:46:02.622Z,994.18
2019-04-23T14:48:31.328Z,994.20
2019-04-23T14:50:34.862Z,994.16
2019-04-23T14:51:32.078Z,994.19
2019-04-23T14:53:18.495Z,994.19
2019-04-23T14:54:24.906Z,994.16
2019-04-23T14:56:19.025Z,994.19
2019-04-23T14:57:15.720Z,994.17
2019-04-23T14:59:07.082Z,994.18
2019-04-23T15:00:09.483Z,994.06
2019-04-23T15:02:00.841Z,994.01
2019-04-23T15:02:59.105Z,994.21
2019-04-23T15:04:49.681Z,994.09
2019-04-23T15:06:10.445Z,994.15
2019-04-23T15:07:46.503Z,994.05
2019-04-23T15:08:48.236Z,994.08
2019-04-23T15:10:40.920Z,994.12
2019-04-23T15:11:36.812Z,994.05
2019-04-23T15:13:28.697Z,994.04
2019-04-23T15:14:33.424Z,994.06
2019-04-23T15:16:24.615Z,994.12
2019-04-23T15:17:22.126Z,994.07
2019-04-23T15:19:31.626Z,994.04
2019-04-23T15:20:19.974Z,994.04
2019-04-23T15:22:13.476Z,994.00
2019-04-23T15:23:25.589Z,993.94
2019-04-23T15:25:10.741Z,993.96
2019-04-23T15:26:57.089Z,994.00
2019-04-23T15:28:33.773Z,993.95
2019-04-23T15:30:45.931Z,993.89
2019-04-23T15:31:57.619Z,993.98
2019-04-23T15:33:45.106Z,993.94
2019-04-23T15:34:42.571Z,993.90
2019-04-23T15:39:29.227Z,993.79
2019-04-23T15:40:23.271Z,993.80
2019-04-23T15:42:16.737Z,993.88
2019-04-23T15:43:22.882Z,993.90
2019-04-23T15:45:07.976Z,993.72
2019-04-23T15:46:21.521Z,993.76
2019-04-23T15:48:16.350Z,993.76
2019-04-23T15:51:08.078Z,993.74
2019-04-23T15:51:56.607Z,993.69
2019-04-23T15:53:51.720Z,993.69
2019-04-23T15:55:01.696Z,993.71
2019-04-23T15:59:49.733Z,993.66
2019-04-23T16:00:30.959Z,993.78
2019-04-23T16:01:59.963Z,993.69
2019-04-23T16:02:59.975Z,993.63
2019-04-23T16:04:53.224Z,993.64
2019-04-23T16:05:53.094Z,993.65
2019-04-23T16:08:03.414Z,993.63
2019-04-23T16:09:06.555Z,993.62
2019-04-23T16:11:18.699Z,993.64
2019-04-23T16:11:59.522Z,993.62
2019-04-23T16:15:02.410Z,993.63
2019-04-23T16:16:58.339Z,993.63
2019-04-23T16:17:50.278Z,993.67
2019-04-23T16:19:54.188Z,993.68
2019-04-23T16:20:58.586Z,993.74
2019-04-23T16:22:36.900Z,993.65
2019-04-23T16:23:52.861Z,993.67
2019-04-23T16:25:43.591Z,993.62
2019-04-23T16:28:28.381Z,993.61
2019-04-23T16:31:30.642Z,993.59
2019-04-23T16:32:28.027Z,993.65
2019-04-23T16:35:18.017Z,993.54
2019-04-23T16:37:07.755Z,993.63
2019-04-23T16:38:21.600Z,993.49
2019-04-23T16:40:01.878Z,993.61
2019-04-23T16:42:58.058Z,993.59
2019-04-23T16:45:45.959Z,993.62
2019-04-23T16:46:50.142Z,993.63
2019-04-23T16:49:58.231Z,993.59
2019-04-23T16:51:27.779Z,993.64
2019-04-23T16:52:26.532Z,993.65
2019-04-23T16:54:26.273Z,993.64
2019-04-23T16:55:24.204Z,993.66
2019-04-23T16:59:15.538Z,993.66
2019-04-23T17:00:22.856Z,993.63
2019-04-23T17:03:12.363Z,993.66
2019-04-23T17:04:03.651Z,993.73
2019-04-23T17:06:08.568Z,993.57
2019-04-23T17:06:58.972Z,993.59
2019-04-23T17:09:02.229Z,993.64
2019-04-23T17:09:51.185Z,993.70
2019-04-23T17:11:44.796Z,993.60
2019-04-23T17:12:46.183Z,993.60
2019-04-23T17:14:32.981Z,993.64
2019-04-23T17:15:33.240Z,993.49
2019-04-23T17:17:22.637Z,993.48
2019-04-23T17:18:37.634Z,993.56
2019-04-23T17:20:25.212Z,993.54
2019-04-23T17:21:22.288Z,993.62
2019-04-23T17:23:29.453Z,993.56
2019-04-23T17:24:18.931Z,993.61
2019-04-23T17:27:11.077Z,993.59
2019-04-23T17:29:08.379Z,993.62
2019-04-23T17:29:57.878Z,993.63
2019-04-23T17:32:00.566Z,993.59
2019-04-23T17:33:04.174Z,993.66
2019-04-23T17:35:05.165Z,993.66
2019-04-23T17:35:55.604Z,993.66
2019-04-23T17:38:41.807Z,993.61
2019-04-23T17:40:32.492Z,993.61
2019-04-23T17:43:29.756Z,993.56
2019-04-23T17:44:42.510Z,993.60
2019-04-23T17:46:14.742Z,993.54
2019-04-23T17:47:22.446Z,993.56
2019-04-23T17:49:10.730Z,993.55
2019-04-23T17:52:10.566Z,993.58
2019-04-23T17:53:03.373Z,993.58
2019-04-23T17:54:56.749Z,993.58
2019-04-23T17:56:18.452Z,993.57
2019-04-23T17:59:04.305Z,993.56
2019-04-23T18:01:40.994Z,993.51
2019-04-23T18:03:45.559Z,993.60
2019-04-23T18:04:50.541Z,993.63
2019-04-23T18:07:43.784Z,993.58
2019-04-23T18:09:25.553Z,993.64
2019-04-23T18:10:27.395Z,993.62
2019-04-23T18:12:28.514Z,993.64
2019-04-23T18:13:19.295Z,993.68
2019-04-23T18:15:06.543Z,993.68
2019-04-23T18:16:08.490Z,993.72
2019-04-23T18:19:05.777Z,993.74
2019-04-23T18:20:57.947Z,993.71
2019-04-23T18:22:00.269Z,993.71
2019-04-23T18:23:55.734Z,993.70
2019-04-23T18:24:41.196Z,993.76
2019-04-23T18:26:39.957Z,993.76
2019-04-23T18:27:50.747Z,993.77
2019-04-23T18:29:47.409Z,993.78
2019-04-23T18:30:26.148Z,993.79
2019-04-23T18:32:30.214Z,993.79
2019-04-23T18:33:49.353Z,993.78
2019-04-23T18:36:08.215Z,993.81
2019-04-23T18:39:06.838Z,993.82
2019-04-23T18:42:09.514Z,993.83
2019-04-23T18:44:06.042Z,993.82
2019-04-23T18:44:56.213Z,993.79
2019-04-23T18:47:50.446Z,993.78
2019-04-23T18:49:41.066Z,993.76
2019-04-23T18:50:48.357Z,993.80
2019-04-23T18:52:41.105Z,993.77
2019-04-23T18:55:37.050Z,993.79
2019-04-23T18:56:30.598Z,993.82
2019-04-23T18:58:21.192Z,993.84
2019-04-23T18:59:37.101Z,993.86
2019-04-23T19:02:24.080Z,993.83
2019-04-23T19:04:11.242Z,993.81
2019-04-23T19:06:41.297Z,993.85
2019-04-23T19:08:07.562Z,993.86
2019-04-23T19:10:11.713Z,993.86
2019-04-23T19:11:11.108Z,993.85
2019-04-23T19:12:44.413Z,993.85
2019-04-23T19:13:46.095Z,993.85
2019-04-23T19:16:41.599Z,993.86
2019-04-23T19:18:35.677Z,993.85
2019-04-23T19:19:33.369Z,993.89
2019-04-23T19:21:36.302Z,993.90
2019-04-23T19:24:18.572Z,993.89
2019-04-23T19:25:14.198Z,993.91
2019-04-23T19:27:32.071Z,993.85
2019-04-23T19:28:25.611Z,993.85
2019-04-23T19:30:03.142Z,993.86
2019-04-23T19:32:55.690Z,993.85
2019-04-23T19:34:02.954Z,993.85
2019-04-23T19:36:59.669Z,993.82
2019-04-23T19:38:36.409Z,993.85
2019-04-23T19:39:36.608Z,993.81
2019-04-23T19:41:37.305Z,993.80
2019-04-23T19:42:36.795Z,993.79
2019-04-23T19:44:24.539Z,993.78
2019-04-23T19:45:30.270Z,993.79
2019-04-23T19:50:19.653Z,993.78
2019-04-23T19:53:25.965Z,993.78
2019-04-23T19:56:13.408Z,993.78
2019-04-23T19:56:59.863Z,993.73
2019-04-23T19:59:52.569Z,993.72
2019-04-23T20:01:46.878Z,993.73
2019-04-23T20:03:01.760Z,993.70
2019-04-23T20:05:41.970Z,993.70
2019-04-23T20:08:46.372Z,993.68
2019-04-23T20:10:24.783Z,993.69
2019-04-23T20:11:32.719Z,993.68
2019-04-23T20:13:24.454Z,993.68
2019-04-23T20:14:09.580Z,993.69
2019-04-23T20:16:10.889Z,993.69
2019-04-23T20:18:57.601Z,993.65
2019-04-23T20:20:02.977Z,993.61
2019-04-23T20:22:51.554Z,993.67
2019-04-23T20:26:12.579Z,993.66
2019-04-23T20:27:48.564Z,993.66
2019-04-23T20:31:05.110Z,993.66
2019-04-23T20:32:59.281Z,993.65
2019-04-23T20:33:59.911Z,993.62
2019-04-23T20:36:40.101Z,993.64
2019-04-23T20:37:16.861Z,993.62
2019-04-23T20:40:15.079Z,993.62
2019-04-23T20:42:13.461Z,993.66
2019-04-23T20:43:07.010Z,993.68
2019-04-23T20:46:04.209Z,993.63
2019-04-23T20:47:51.408Z,993.62
2019-04-23T20:48:53.059Z,993.58
2019-04-23T20:50:44.467Z,993.65
2019-04-23T20:51:57.521Z,993.61
2019-04-23T20:53:41.472Z,993.61
2019-04-23T20:54:50.943Z,993.57
2019-04-23T20:56:36.851Z,993.63
2019-04-23T20:57:39.205Z,993.61
2019-04-23T20:59:31.641Z,993.60
2019-04-23T21:00:20.731Z,993.59
2019-04-23T21:02:27.266Z,993.56
2019-04-23T21:03:30.842Z,993.59
2019-04-23T21:05:06.678Z,993.59
2019-04-23T21:06:09.908Z,993.59
2019-04-23T21:09:23.661Z,993.60
2019-04-23T21:11:05.265Z,993.55
2019-04-23T21:11:57.983Z,993.54
2019-04-23T21:16:41.359Z,993.60
2019-04-23T21:17:52.639Z,993.59
2019-04-23T21:19:41.210Z,993.56
2019-04-23T21:23:28.848Z,993.57
2019-04-23T21:25:22.383Z,993.57
2019-04-23T21:26:17.015Z,993.54
2019-04-23T21:28:17.073Z,993.54
2019-04-23T21:29:04.002Z,993.54
2019-04-23T21:32:09.247Z,993.52
2019-04-23T21:34:13.069Z,993.49
2019-04-23T21:35:13.575Z,993.52
2019-04-23T21:37:53.768Z,993.47
2019-04-23T21:40:02.743Z,993.50
2019-04-23T21:42:50.320Z,993.48
2019-04-23T21:43:59.227Z,993.45
2019-04-23T21:45:30.608Z,993.49
2019-04-23T21:48:33.900Z,993.47
2019-04-23T21:49:25.114Z,993.46
2019-04-23T21:51:31.225Z,993.45
2019-04-23T21:52:11.438Z,993.45